NMSU Main Campus Data

Date Time Air Temperature Relative Humidity Dewpoint Windchill Heat Index Wind Speed Wind Dir. Rain Solar Radiation Soil Temperature
2m 2m 3m 3m 10cm
US/Mountain F % F F F MPH deg in MJ/m^2 F
max avg avg
2020-09-16 00:05:00 64.1 66.4 52.6 64.1 64.1 0.0 0.0 0.0 221.8 0.0 0.00 0.0000000 81.0
2020-09-16 00:10:00 64.2 69.0 53.8 64.2 64.2 0.0 0.0 0.0 239.4 0.0 0.00 0.0000000 80.9
2020-09-16 00:15:00 64.3 67.6 53.4 64.3 64.3 0.0 0.0 0.0 108.0 0.0 0.00 0.0000000 80.9
2020-09-16 00:20:00 64.3 68.2 53.6 64.3 64.3 0.0 0.0 0.0 107.9 0.0 0.00 0.0000000 80.8
2020-09-16 00:25:00 64.1 69.0 53.8 64.1 64.1 0.0 0.0 0.0 108.1 0.0 0.00 0.0000000 80.7
2020-09-16 00:30:00 64.0 65.5 52.2 64.0 64.0 0.0 0.0 0.0 94.2 0.0 0.00 0.0000000 80.6
2020-09-16 00:35:00 64.3 68.2 53.6 64.3 64.3 0.0 0.0 0.0 130.0 0.0 0.00 0.0000000 80.5
2020-09-16 00:40:00 64.3 67.9 53.4 64.3 64.3 0.0 0.0 0.0 133.5 0.0 0.00 0.0000000 80.5
2020-09-16 00:45:00 63.9 67.5 52.9 63.9 63.9 0.0 0.0 0.0 165.7 0.0 0.00 0.0000000 80.3
2020-09-16 00:50:00 63.5 69.1 53.2 63.5 63.5 0.0 0.0 0.0 165.8 0.0 0.00 0.0000000 80.3
2020-09-16 00:55:00 63.2 69.9 53.2 63.2 63.2 0.0 0.0 0.0 183.6 0.0 0.00 0.0000000 80.2
2020-09-16 01:00:00 63.2 69.9 53.2 63.2 63.2 0.0 0.0 0.0 162.3 0.0 0.00 0.0000000 80.2
2020-09-16 01:05:00 63.3 69.3 53.1 63.3 63.3 0.0 0.0 0.0 161.5 0.0 0.00 0.0000000 80.1
2020-09-16 01:10:00 62.7 69.4 52.5 62.7 62.7 0.0 0.0 0.0 161.5 0.0 0.00 0.0000000 80.0
2020-09-16 01:15:00 62.7 68.9 52.3 62.7 62.7 0.0 0.0 0.0 162.5 0.0 0.00 0.0000000 79.9
2020-09-16 01:20:00 62.7 71.6 53.4 62.7 62.7 0.0 0.0 0.0 162.1 0.0 0.00 0.0000000 79.9
2020-09-16 01:25:00 62.7 69.7 52.6 62.7 62.7 0.0 0.0 0.0 161.5 0.0 0.00 0.0000000 79.8
2020-09-16 01:30:00 62.5 68.1 51.8 62.5 62.5 0.0 0.0 0.0 161.3 0.0 0.00 0.0000000 79.7
2020-09-16 01:35:00 62.2 69.3 52.0 62.2 62.2 0.0 0.0 0.0 162.1 0.0 0.00 0.0000000 79.6
2020-09-16 01:40:00 62.3 73.9 53.8 62.3 62.3 0.0 0.0 0.0 157.5 0.0 0.00 0.0000000 79.6
2020-09-16 01:45:00 62.3 75.2 54.3 62.3 62.3 0.0 0.0 0.0 157.6 0.0 0.00 0.0000000 79.5
2020-09-16 01:50:00 62.0 75.8 54.3 62.0 62.0 0.0 0.0 0.0 161.7 0.0 0.00 0.0000000 79.4
2020-09-16 01:55:00 62.0 76.1 54.4 62.0 62.0 0.0 0.0 0.0 46.0 0.0 0.00 0.0000000 79.4
2020-09-16 02:00:00 61.9 76.1 54.3 61.9 61.9 0.0 0.0 0.0 31.8 0.0 0.00 0.0000000 79.3
2020-09-16 02:05:00 61.8 76.4 54.3 61.8 61.8 0.0 0.0 0.0 160.7 0.0 0.00 0.0000000 79.2
2020-09-16 02:10:00 62.1 76.2 54.5 62.1 62.1 0.0 0.0 0.0 186.0 0.0 0.00 0.0000000 79.1
2020-09-16 02:15:00 62.0 76.3 54.4 62.0 62.0 0.0 0.0 0.0 176.9 0.0 0.00 0.0000000 79.1
2020-09-16 02:20:00 61.6 76.9 54.3 61.6 61.6 0.0 0.0 0.0 202.4 0.0 0.00 0.0000000 79.1
2020-09-16 02:25:00 61.6 77.1 54.3 61.6 61.6 0.0 0.0 0.0 208.6 0.0 0.00 0.0000000 79.0
2020-09-16 02:30:00 61.6 77.6 54.5 61.6 61.6 0.0 0.0 0.0 169.6 0.0 0.00 0.0000000 78.9
2020-09-16 02:35:00 61.6 76.4 54.2 61.6 61.6 0.0 0.0 0.0 162.1 0.0 0.00 0.0000000 78.9
2020-09-16 02:40:00 61.5 75.8 53.8 61.5 61.5 0.0 0.0 0.0 163.4 0.0 0.00 0.0000000 78.7
2020-09-16 02:45:00 61.3 76.8 53.9 61.3 61.3 0.0 0.0 0.0 146.7 0.0 0.00 0.0000000 78.7
2020-09-16 02:50:00 61.1 77.3 54.0 61.1 61.1 0.0 0.0 0.0 117.3 0.0 0.00 0.0000000 78.7
2020-09-16 02:55:00 60.6 78.8 54.0 60.6 60.6 0.0 0.0 0.0 120.9 0.0 0.00 0.0000000 78.6
2020-09-16 03:00:00 60.5 79.1 54.0 60.5 60.5 0.0 0.0 0.0 328.0 0.0 0.00 0.0000000 78.5
2020-09-16 03:05:00 60.4 79.9 54.1 60.4 60.4 0.0 0.0 0.0 134.2 0.0 0.00 0.0000000 78.5
2020-09-16 03:10:00 60.5 80.0 54.3 60.5 60.5 0.0 0.0 0.0 147.7 0.0 0.00 0.0000000 78.4
2020-09-16 03:15:00 60.5 79.5 54.1 60.5 60.5 0.0 0.0 0.0 143.2 0.0 0.00 0.0000000 78.3
2020-09-16 03:20:00 60.4 78.5 53.7 60.4 60.4 0.0 0.0 0.0 158.8 0.0 0.00 0.0000000 78.3
2020-09-16 03:25:00 60.3 78.7 53.7 60.3 60.3 0.0 0.0 0.0 163.3 0.0 0.00 0.0000000 78.2
2020-09-16 03:30:00 60.1 79.9 53.9 60.1 60.1 0.0 0.0 0.0 214.3 0.0 0.00 0.0000000 78.2
2020-09-16 03:35:00 60.2 79.0 53.6 60.2 60.2 0.0 0.0 0.0 174.5 0.0 0.00 0.0000000 78.1
2020-09-16 03:40:00 60.4 80.2 54.3 60.4 60.4 0.0 1.0 0.0 223.9 164.1 0.00 0.0000000 78.0
2020-09-16 03:45:00 60.2 80.7 54.2 60.2 60.2 0.0 0.0 0.0 1.0 0.0 0.00 0.0000000 78.0
2020-09-16 03:50:00 59.7 81.5 54.0 59.7 59.7 0.0 0.0 0.0 292.4 0.0 0.00 0.0000000 77.9
2020-09-16 03:55:00 60.1 80.5 54.1 60.1 60.1 0.0 0.0 0.0 188.4 0.0 0.00 0.0000000 77.8
2020-09-16 04:00:00 60.2 81.0 54.3 60.2 60.2 0.0 0.0 0.0 195.8 0.0 0.00 0.0000000 77.8
2020-09-16 04:05:00 60.0 82.1 54.5 60.0 60.0 0.0 0.0 0.0 167.1 0.0 0.00 0.0000000 77.7
2020-09-16 04:10:00 59.7 82.3 54.3 59.7 59.7 0.0 0.0 0.0 165.3 0.0 0.00 0.0000000 77.7
2020-09-16 04:15:00 59.5 82.5 54.2 59.5 59.5 0.0 0.0 0.0 30.4 0.0 0.00 0.0000000 77.6
2020-09-16 04:20:00 59.6 81.0 53.8 59.6 59.6 0.0 0.0 0.0 41.5 0.0 0.00 0.0000000 77.6
2020-09-16 04:25:00 59.8 81.4 54.1 59.8 59.8 0.0 0.0 0.0 1.3 0.0 0.00 0.0000000 77.5
2020-09-16 04:30:00 59.6 81.9 54.1 59.6 59.6 0.0 0.0 0.0 186.2 0.0 0.00 0.0000000 77.5
2020-09-16 04:35:00 59.6 81.3 53.9 59.6 59.6 0.0 0.0 0.0 190.5 0.0 0.00 0.0000000 77.4
2020-09-16 04:40:00 59.6 81.1 53.8 59.6 59.6 0.0 0.0 0.0 197.5 0.0 0.00 0.0000000 77.3
2020-09-16 04:45:00 59.6 81.8 54.0 59.6 59.6 0.0 0.0 0.0 208.4 0.0 0.00 0.0000000 77.3
2020-09-16 04:50:00 59.8 82.0 54.3 59.8 59.8 0.0 0.0 0.0 146.9 0.0 0.00 0.0000000 77.2
2020-09-16 04:55:00 59.6 82.0 54.1 59.6 59.6 0.0 0.0 0.0 125.6 0.0 0.00 0.0000000 77.2
2020-09-16 05:00:00 59.3 82.2 53.9 59.3 59.3 0.0 0.0 0.0 139.1 0.0 0.00 0.0000000 77.1
2020-09-16 05:05:00 59.3 81.7 53.7 59.3 59.3 0.0 0.0 0.0 191.8 0.0 0.00 0.0000000 77.1
2020-09-16 05:10:00 59.3 79.9 53.1 59.3 59.3 0.0 0.0 0.0 216.9 0.0 0.00 0.0000000 77.0
2020-09-16 05:15:00 59.4 81.2 53.7 59.4 59.4 0.0 0.0 0.0 226.5 0.0 0.00 0.0000000 76.9
2020-09-16 05:20:00 59.2 82.8 54.0 59.2 59.2 0.0 0.0 0.0 181.6 0.0 0.00 0.0000000 76.9
2020-09-16 05:25:00 59.2 83.1 54.1 59.2 59.2 0.0 0.0 0.0 205.5 0.0 0.00 0.0000000 76.8
2020-09-16 05:30:00 59.3 83.2 54.2 59.3 59.3 0.0 0.0 0.0 204.4 0.0 0.00 0.0000000 76.8
2020-09-16 05:35:00 58.9 83.8 54.0 58.9 58.9 0.0 0.0 0.0 202.1 0.0 0.00 0.0000000 76.7
2020-09-16 05:40:00 58.6 84.1 53.8 58.6 58.6 0.0 0.0 0.0 137.0 0.0 0.00 0.0000000 76.7
2020-09-16 05:45:00 58.4 84.6 53.8 58.4 58.4 0.0 0.0 0.0 140.3 0.0 0.00 0.0000000 76.6
2020-09-16 05:50:00 58.3 85.3 53.9 58.3 58.3 0.0 0.0 0.0 140.3 0.0 0.00 0.0000000 76.6
2020-09-16 05:55:00 58.1 86.4 54.1 58.1 58.1 0.0 0.0 0.0 315.1 0.0 0.00 0.0000000 76.5
2020-09-16 06:00:00 57.6 87.2 53.8 57.6 57.6 0.0 0.0 0.0 315.2 0.0 0.00 0.0000000 76.5
2020-09-16 06:05:00 57.8 86.8 53.9 57.8 57.8 0.0 0.0 0.0 287.9 0.0 0.00 0.0000000 76.4
2020-09-16 06:10:00 58.0 85.5 53.6 58.0 58.0 0.0 0.0 0.0 285.4 0.0 0.00 0.0000000 76.4
2020-09-16 06:15:00 57.7 85.1 53.3 57.7 57.7 0.0 0.0 0.0 285.4 0.0 0.00 0.0000000 76.3
2020-09-16 06:20:00 57.8 84.1 53.1 57.8 57.8 0.0 0.0 0.0 263.9 0.0 0.00 0.0000000 76.3
2020-09-16 06:25:00 57.9 83.8 53.0 57.9 57.9 0.0 0.0 0.0 260.9 0.0 0.00 0.0000000 76.2
2020-09-16 06:30:00 57.8 84.2 53.1 57.8 57.8 0.0 0.0 0.0 131.2 0.0 0.00 0.0000020 76.2
2020-09-16 06:35:00 58.0 83.1 52.9 58.0 58.0 0.0 0.0 0.0 239.0 0.0 0.00 0.0000402 76.1
2020-09-16 06:40:00 58.0 84.2 53.3 58.0 58.0 0.0 0.0 0.0 203.6 0.0 0.00 0.0001106 76.0
2020-09-16 06:45:00 58.1 84.4 53.4 58.1 58.1 0.0 0.0 0.0 146.9 0.0 0.00 0.0003015 76.0
2020-09-16 06:50:00 58.0 82.8 52.8 58.0 58.0 0.0 0.0 0.0 146.9 0.0 0.00 0.0005588 76.0
2020-09-16 06:55:00 57.9 83.4 52.9 57.9 57.9 0.0 0.0 0.0 200.1 0.0 0.00 0.0010795 75.9
2020-09-16 07:00:00 58.1 83.6 53.2 58.1 58.1 0.0 0.0 0.0 184.9 0.0 0.00 0.0020041 75.9
2020-09-16 07:05:00 58.4 82.7 53.2 58.4 58.4 0.0 0.0 0.0 140.7 0.0 0.00 0.0030896 75.8
2020-09-16 07:10:00 58.3 82.5 53.0 58.3 58.3 0.0 0.0 0.0 141.5 0.0 0.00 0.0043057 75.8
2020-09-16 07:15:00 58.3 82.9 53.2 58.3 58.3 0.0 0.0 0.0 141.5 0.0 0.00 0.0054415 75.7
2020-09-16 07:20:00 58.3 82.5 53.0 58.3 58.3 0.0 0.0 0.0 272.2 0.0 0.00 0.0065712 75.7
2020-09-16 07:25:00 58.9 81.5 53.3 58.9 58.9 0.0 0.0 0.0 234.1 0.0 0.00 0.0086417 75.6
2020-09-16 07:30:00 59.2 78.5 52.6 59.2 59.2 0.0 0.0 0.0 251.0 0.0 0.00 0.0133696 75.6
2020-09-16 07:35:00 59.8 74.9 51.9 59.8 59.8 0.0 1.5 0.2 293.1 295.4 0.00 0.0233138 75.5
2020-09-16 07:40:00 60.3 74.3 52.1 60.3 60.3 0.0 0.0 0.0 297.6 0.0 0.00 0.0286611 75.5
2020-09-16 07:45:00 60.5 72.7 51.7 60.5 60.5 0.0 0.0 0.0 288.5 0.0 0.00 0.0341976 75.5
2020-09-16 07:50:00 61.3 71.1 51.8 61.3 61.3 0.0 0.0 0.0 0.7 0.0 0.00 0.0389009 75.4
2020-09-16 07:55:00 62.0 68.9 51.7 62.0 62.0 0.0 1.3 0.3 328.0 331.0 0.00 0.0434131 75.3
2020-09-16 08:00:00 62.6 67.9 51.9 62.6 62.6 0.0 0.0 0.0 320.1 0.0 0.00 0.0481179 75.3
2020-09-16 08:05:00 63.3 65.5 51.5 63.3 63.3 0.0 0.0 0.0 2.5 0.0 0.00 0.0530733 75.3
2020-09-16 08:10:00 63.7 64.4 51.4 63.7 63.7 0.0 0.8 0.0 332.7 310.5 0.00 0.0580038 75.3
2020-09-16 08:15:00 64.1 64.4 51.9 64.1 64.1 0.0 0.8 0.0 316.9 331.7 0.00 0.0628851 75.2
2020-09-16 08:20:00 65.0 62.4 51.8 65.0 65.0 0.0 0.0 0.0 311.8 0.0 0.00 0.0678406 75.2
2020-09-16 08:25:00 65.6 58.6 50.7 65.6 65.6 0.0 0.0 0.0 308.7 0.0 0.00 0.0730435 75.1
2020-09-16 08:30:00 66.4 56.0 50.2 66.4 66.4 0.0 0.0 0.0 296.8 0.0 0.00 0.0780645 75.1
2020-09-16 08:35:00 68.4 54.1 51.1 68.4 68.4 0.0 0.0 0.0 296.7 0.0 0.00 0.0831978 75.1
2020-09-16 08:40:00 69.9 53.5 52.2 69.9 69.9 0.0 0.0 0.0 304.5 0.0 0.00 0.0884546 75.1
2020-09-16 08:45:00 69.5 58.6 54.4 69.5 69.5 0.0 0.0 0.0 304.0 0.0 0.00 0.0937653 75.0
2020-09-16 08:50:00 69.2 57.4 53.5 69.2 69.2 0.0 2.1 0.2 222.8 253.0 0.00 0.0989293 75.0
2020-09-16 08:55:00 69.6 59.7 55.0 69.6 69.6 0.0 0.8 0.0 270.7 199.0 0.00 0.1039634 75.0
2020-09-16 09:00:00 69.5 56.2 53.2 69.5 69.5 1.0 1.9 0.8 214.2 231.4 0.00 0.1089959 75.0
2020-09-16 09:05:00 70.1 56.8 54.0 70.1 70.1 0.0 2.4 0.3 263.5 229.3 0.00 0.1139495 75.0
2020-09-16 09:10:00 71.8 55.3 54.9 71.8 71.8 2.1 2.6 0.6 268.8 246.4 0.00 0.1189923 75.0
2020-09-16 09:15:00 71.5 54.0 54.1 71.5 71.5 0.0 1.3 0.5 288.2 223.1 0.00 0.1240742 75.0
2020-09-16 09:20:00 71.2 54.1 53.8 71.2 71.2 1.3 2.1 0.7 224.3 279.7 0.00 0.1289686 75.0
2020-09-16 09:25:00 72.6 52.8 54.4 72.6 72.6 1.9 1.9 0.4 214.4 223.6 0.00 0.1338999 75.0
2020-09-16 09:30:00 72.8 52.7 54.5 72.8 72.8 0.0 1.9 0.6 81.7 183.2 0.00 0.1386233 75.1
2020-09-16 09:35:00 73.4 51.4 54.4 73.4 73.4 0.0 1.7 0.2 223.0 232.0 0.00 0.1433221 75.1
2020-09-16 09:40:00 74.2 50.8 54.8 74.2 74.2 1.2 2.2 0.3 220.3 207.3 0.00 0.1479468 75.2
2020-09-16 09:45:00 74.7 52.0 55.9 74.7 74.7 1.7 2.6 0.8 270.0 249.9 0.00 0.1524434 75.2
2020-09-16 09:50:00 74.3 56.2 57.7 74.3 74.3 3.1 5.1 2.0 225.8 241.9 0.00 0.1569927 75.3
2020-09-16 09:55:00 74.5 53.3 56.4 74.5 74.5 0.0 3.5 1.4 74.6 197.1 0.00 0.1615801 75.3
2020-09-16 10:00:00 75.5 55.1 58.2 75.5 75.5 1.0 2.8 1.5 244.6 177.1 0.00 0.1658962 75.4
2020-09-16 10:05:00 75.1 54.2 57.5 75.1 75.1 1.0 3.5 1.7 127.8 209.6 0.00 0.1706568 75.5
2020-09-16 10:10:00 76.6 51.2 57.3 76.6 76.6 0.0 3.0 0.4 184.9 136.6 0.00 0.1749099 75.5
2020-09-16 10:15:00 76.7 51.2 57.3 76.7 76.7 2.6 3.0 1.1 315.0 137.6 0.00 0.1790825 75.6
2020-09-16 10:20:00 77.0 50.1 57.0 77.0 77.0 1.7 3.5 1.1 202.1 186.8 0.00 0.1830947 75.7
2020-09-16 10:25:00 77.5 49.0 56.8 77.5 77.5 3.7 3.7 1.0 231.0 219.6 0.00 0.1867641 75.8
2020-09-16 10:30:00 77.6 49.5 57.2 77.6 77.6 0.8 4.6 2.0 200.1 201.7 0.00 0.1905750 75.9
2020-09-16 10:35:00 77.4 50.4 57.5 77.4 77.4 0.8 4.0 1.6 201.7 250.9 0.00 0.1937903 76.0
2020-09-16 10:40:00 77.9 49.2 57.3 77.9 77.9 1.9 3.7 1.4 110.6 130.3 0.00 0.1977541 76.1
2020-09-16 10:45:00 78.6 47.6 57.1 78.6 78.6 0.0 3.5 0.9 17.6 53.0 0.00 0.2006366 76.3
2020-09-16 10:50:00 79.3 51.5 59.9 79.3 79.3 0.8 1.9 0.4 288.2 30.0 0.00 0.2046987 76.4
2020-09-16 10:55:00 79.9 45.0 56.6 79.9 79.9 0.0 3.8 2.0 190.3 179.3 0.00 0.2079229 76.5
2020-09-16 11:00:00 79.7 47.0 57.7 79.7 79.7 0.8 3.0 1.4 253.1 253.0 0.00 0.2115317 76.7
2020-09-16 11:05:00 79.3 48.6 58.3 79.3 79.3 2.4 2.6 1.6 298.7 309.6 0.00 0.2150394 76.8
2020-09-16 11:10:00 79.6 44.3 56.0 79.6 79.6 3.0 3.5 1.3 177.5 262.5 0.00 0.2176458 77.0
2020-09-16 11:15:00 80.4 45.4 57.3 80.4 80.7 0.0 3.3 1.5 230.6 219.3 0.00 0.2212628 77.1
2020-09-16 11:20:00 81.2 44.5 57.5 81.2 81.2 2.2 2.6 1.0 27.6 118.8 0.00 0.2239348 77.2
2020-09-16 11:25:00 81.2 42.3 56.2 81.2 81.1 2.4 4.2 2.3 270.8 129.0 0.00 0.2264949 77.4
2020-09-16 11:30:00 80.7 40.7 54.6 80.7 80.5 2.2 4.9 3.0 291.4 259.3 0.00 0.2293560 77.6
2020-09-16 11:35:00 80.2 42.3 55.2 80.2 80.2 2.6 5.1 2.4 300.1 282.6 0.00 0.2315037 77.7
2020-09-16 11:40:00 80.8 39.6 54.0 80.8 80.8 2.6 4.4 1.8 166.8 2.0 0.00 0.2330401 77.9
2020-09-16 11:45:00 80.9 40.0 54.3 80.9 80.9 1.7 5.3 2.9 59.5 145.0 0.00 0.2356882 78.1
2020-09-16 11:50:00 82.0 39.0 54.6 82.0 82.0 3.8 3.8 0.7 214.8 224.2 0.00 0.2376520 78.3
2020-09-16 11:55:00 82.0 37.7 53.7 82.0 82.0 4.2 5.3 3.5 165.4 194.6 0.00 0.2399855 78.4
2020-09-16 12:00:00 82.7 37.2 53.9 82.7 82.7 1.7 4.9 1.9 199.0 205.2 0.00 0.2419552 78.6
2020-09-16 12:05:00 84.3 34.3 53.1 84.3 84.3 0.0 3.3 0.7 104.4 138.1 0.00 0.2437362 78.8
2020-09-16 12:10:00 83.2 36.4 53.8 83.2 83.2 3.1 6.7 3.5 93.8 148.5 0.00 0.2454497 79.0
2020-09-16 12:15:00 83.7 33.3 51.8 83.7 83.7 1.0 2.6 0.8 119.4 119.3 0.00 0.2467513 79.1
2020-09-16 12:20:00 84.0 33.2 52.0 84.0 84.0 4.4 4.7 2.3 215.2 156.8 0.00 0.2477493 79.4
2020-09-16 12:25:00 83.5 33.1 51.5 83.5 83.5 0.0 3.3 1.0 251.2 246.6 0.00 0.2487809 79.5
2020-09-16 12:30:00 83.7 32.9 51.4 83.7 83.7 5.5 5.8 3.4 238.2 227.4 0.00 0.2501134 79.7
2020-09-16 12:35:00 83.3 30.9 49.5 83.3 83.3 2.6 6.7 3.8 261.8 232.0 0.00 0.2494632 79.9
2020-09-16 12:40:00 84.3 29.3 48.9 84.3 84.3 1.3 5.1 2.2 210.0 238.4 0.00 0.2506846 80.1
2020-09-16 12:45:00 85.0 30.4 50.4 85.0 85.0 1.5 2.4 0.5 46.9 247.9 0.00 0.2512173 80.3
2020-09-16 12:50:00 85.7 28.3 49.2 85.7 85.7 2.1 3.5 1.1 121.3 185.4 0.00 0.2516422 80.5
2020-09-16 12:55:00 85.7 28.9 49.7 85.7 85.7 2.1 5.5 2.0 231.5 148.7 0.00 0.2516613 80.7
2020-09-16 13:00:00 84.8 27.9 48.0 84.8 84.8 3.7 6.9 3.5 126.2 211.6 0.00 0.2519005 80.9
2020-09-16 13:05:00 85.6 27.4 48.2 85.6 85.6 1.7 3.5 1.5 49.3 73.9 0.00 0.2525155 81.1
2020-09-16 13:10:00 85.6 28.8 49.6 85.6 85.6 1.9 4.0 2.3 260.4 309.6 0.00 0.2532095 81.3
2020-09-16 13:15:00 85.7 26.3 47.2 85.7 85.7 0.0 5.3 2.4 258.7 305.2 0.00 0.2526864 81.5
2020-09-16 13:20:00 86.0 28.9 49.9 86.0 86.0 3.5 4.0 2.4 249.9 321.9 0.00 0.2529741 81.7
2020-09-16 13:25:00 85.2 25.3 45.8 85.2 85.2 2.2 6.3 3.1 78.1 281.5 0.00 0.2525798 81.9
2020-09-16 13:30:00 85.9 23.5 44.4 85.9 85.9 5.1 7.4 2.4 241.0 253.1 0.00 0.2522898 82.1
2020-09-16 13:35:00 86.0 27.1 48.2 86.0 86.0 3.8 8.3 4.2 296.1 281.2 0.00 0.2526660 82.3
2020-09-16 13:40:00 85.7 26.4 47.3 85.7 85.7 5.3 5.3 3.3 284.5 302.6 0.00 0.2525686 82.5
2020-09-16 13:45:00 86.0 25.5 46.6 86.0 86.0 0.8 6.9 3.4 6.9 295.5 0.00 0.2536402 82.7
2020-09-16 13:50:00 86.5 22.7 43.9 86.5 86.5 6.5 6.5 2.0 315.1 1.6 0.00 0.2547825 82.8
2020-09-16 13:55:00 86.4 24.7 46.1 86.4 86.4 5.1 6.7 4.4 299.5 317.5 0.00 0.2553187 83.0
2020-09-16 14:00:00 86.3 22.8 44.0 86.3 86.3 2.8 6.2 3.6 172.0 249.0 0.00 0.2526678 83.2
2020-09-16 14:05:00 86.3 25.2 46.6 86.3 86.3 2.6 7.8 3.4 14.3 302.8 0.00 0.2513425 83.3
2020-09-16 14:10:00 87.0 22.4 44.0 87.0 87.0 3.1 5.5 1.5 70.0 11.3 0.00 0.2503085 83.4
2020-09-16 14:15:00 87.1 22.8 44.5 87.1 87.1 3.7 6.9 3.8 226.1 260.3 0.00 0.2515531 83.5
2020-09-16 14:20:00 87.9 21.8 44.1 87.9 87.9 0.0 4.9 1.3 196.3 357.5 0.00 0.2556218 83.7
2020-09-16 14:25:00 88.2 22.7 45.4 88.2 88.2 3.8 7.4 3.4 291.1 240.0 0.00 0.2583995 83.8
2020-09-16 14:30:00 87.0 22.7 44.4 87.0 87.0 0.0 8.3 3.7 88.2 285.2 0.00 0.2614457 83.8
2020-09-16 14:35:00 88.8 21.6 44.6 88.8 88.8 1.2 3.5 1.3 219.1 185.9 0.00 0.2669474 83.9
2020-09-16 14:40:00 89.0 24.0 47.5 89.0 89.0 5.5 8.3 4.4 296.1 343.0 0.00 0.2699516 84.0
2020-09-16 14:45:00 87.8 22.7 45.0 87.8 87.8 2.6 9.2 4.8 101.2 317.3 0.00 0.2659275 84.0
2020-09-16 14:50:00 87.4 22.8 44.8 87.4 87.4 4.0 8.8 5.2 262.0 299.9 0.00 0.2119272 84.1
2020-09-16 14:55:00 87.4 24.7 46.9 87.4 87.4 4.7 8.3 6.1 273.5 296.2 0.00 0.1740898 84.2
2020-09-16 15:00:00 87.1 25.5 47.5 87.1 87.1 3.1 9.4 5.7 322.4 287.5 0.00 0.1574996 84.2
2020-09-16 15:05:00 88.3 23.1 45.9 88.3 88.3 1.9 6.0 3.9 216.7 258.9 0.00 0.2480693 84.3
2020-09-16 15:10:00 88.8 22.3 45.3 88.8 88.8 2.2 10.6 4.8 83.5 298.0 0.00 0.2642184 84.3
2020-09-16 15:15:00 89.4 23.1 46.9 89.4 89.4 4.4 7.6 3.9 50.0 55.6 0.00 0.2429922 84.4
2020-09-16 15:20:00 90.0 20.4 44.0 90.0 90.0 4.9 6.2 3.5 119.7 79.3 0.00 0.2004664 84.4
2020-09-16 15:25:00 88.6 17.9 39.5 88.6 88.6 7.2 8.8 6.7 114.0 113.8 0.00 0.2079954 84.5
2020-09-16 15:30:00 87.9 19.1 40.7 87.9 87.9 3.5 9.9 6.4 104.9 111.8 0.00 0.2142360 84.6
2020-09-16 15:35:00 88.7 19.2 41.4 88.7 88.7 4.2 8.3 5.0 150.1 133.0 0.00 0.2274812 84.7
2020-09-16 15:40:00 89.2 18.8 41.3 89.2 89.2 3.7 6.2 3.9 156.9 145.1 0.00 0.2112273 84.7
2020-09-16 15:45:00 90.0 19.0 42.2 90.0 90.0 3.8 5.6 3.4 226.8 158.6 0.00 0.2029643 84.8
2020-09-16 15:50:00 89.3 19.4 42.3 89.3 89.3 2.6 7.8 4.7 173.0 206.8 0.00 0.2240999 84.9
2020-09-16 15:55:00 89.3 20.2 43.3 89.3 89.3 3.8 4.6 3.0 207.9 195.4 0.00 0.1177291 85.0
2020-09-16 16:00:00 88.1 20.8 43.1 88.1 88.1 1.5 5.8 3.9 227.0 223.7 0.00 0.1172045 85.2
2020-09-16 16:05:00 88.0 21.0 43.1 88.0 88.0 3.8 6.5 3.2 212.5 223.4 0.00 0.1496204 85.2
2020-09-16 16:10:00 89.0 20.4 43.2 89.0 89.0 6.5 7.4 4.0 104.4 150.7 0.00 0.1277732 85.4
2020-09-16 16:15:00 87.5 19.6 41.0 87.5 87.5 4.7 8.3 4.4 84.2 85.1 0.00 0.0537833 85.5
2020-09-16 16:20:00 85.3 22.7 42.9 85.3 85.3 7.4 11.2 7.8 157.2 108.0 0.00 0.0631606 85.6
2020-09-16 16:25:00 84.7 21.1 40.5 84.7 84.7 4.2 9.4 5.7 74.1 99.8 0.00 0.0867187 85.7
2020-09-16 16:30:00 85.1 21.1 41.0 85.1 85.1 2.1 7.1 3.4 104.7 81.5 0.00 0.0627154 85.8
2020-09-16 16:35:00 85.4 20.0 39.8 85.4 85.4 2.4 3.8 2.6 136.3 135.0 0.00 0.0691433 85.9
2020-09-16 16:40:00 86.7 18.8 39.2 86.7 86.7 1.7 3.7 1.7 174.5 189.1 0.00 0.1019473 86.0
2020-09-16 16:45:00 87.4 19.5 40.9 87.4 87.4 2.4 3.3 2.1 131.8 119.3 0.00 0.1149150 86.1
2020-09-16 16:50:00 88.4 19.5 41.7 88.4 88.4 0.0 2.2 0.9 265.4 322.1 0.00 0.0819788 86.2
2020-09-16 16:55:00 88.6 18.8 40.8 88.6 88.6 0.8 2.2 1.2 165.0 162.2 0.00 0.0668759 86.3
2020-09-16 17:00:00 88.8 18.9 41.0 88.8 88.8 0.8 1.5 0.9 174.2 147.7 0.00 0.1172817 86.3
2020-09-16 17:05:00 89.5 18.6 41.2 89.5 89.5 3.1 3.3 1.5 193.9 139.2 0.00 0.1278778 86.4
2020-09-16 17:10:00 89.0 18.7 41.1 89.0 89.0 1.0 3.1 2.1 184.4 157.8 0.00 0.1187226 86.5
2020-09-16 17:15:00 89.4 18.8 41.5 89.4 89.4 1.7 2.1 1.5 102.6 116.0 0.00 0.1126303 86.6
2020-09-16 17:20:00 90.1 18.7 41.8 90.1 90.1 1.9 2.4 1.5 288.8 203.8 0.00 0.1054464 86.6
2020-09-16 17:25:00 89.5 19.7 42.7 89.5 89.5 2.8 4.2 3.1 269.0 219.1 0.00 0.0979749 86.6
2020-09-16 17:30:00 89.4 19.9 43.0 89.4 89.4 3.0 4.4 2.7 232.7 237.7 0.00 0.0905746 86.7
2020-09-16 17:35:00 89.6 20.6 44.0 89.6 89.6 1.7 4.7 2.5 271.0 229.8 0.00 0.0836628 86.8
2020-09-16 17:40:00 89.9 19.5 42.9 89.9 89.9 1.3 2.4 0.9 291.7 269.7 0.00 0.0793031 86.8
2020-09-16 17:45:00 89.8 20.6 44.2 89.8 89.8 2.1 2.2 1.6 40.7 341.8 0.00 0.0748165 86.8
2020-09-16 17:50:00 90.1 15.8 37.5 90.1 90.1 1.7 2.8 1.7 6.4 260.0 0.00 0.0688319 86.8
2020-09-16 17:55:00 90.0 16.2 38.1 90.0 90.0 4.6 4.7 1.8 323.5 359.1 0.00 0.0633040 86.8
2020-09-16 18:00:00 89.5 16.0 37.4 89.5 89.5 3.8 3.8 2.0 305.5 290.0 0.00 0.0593589 86.8
2020-09-16 18:05:00 88.8 13.8 33.1 88.8 88.8 4.7 8.1 4.3 34.4 6.4 0.00 0.0473777 86.9
2020-09-16 18:10:00 89.0 15.1 35.6 89.0 89.0 9.2 14.6 7.7 40.0 29.9 0.00 0.0401752 86.9
2020-09-16 18:15:00 88.4 15.6 35.8 88.4 88.4 9.2 13.0 8.5 68.0 28.3 0.00 0.0395201 86.9
2020-09-16 18:20:00 88.2 15.7 35.9 88.2 88.2 4.6 11.5 7.9 19.4 16.3 0.00 0.0362933 87.0
2020-09-16 18:25:00 88.6 13.6 32.7 88.6 88.6 7.2 10.1 7.0 29.6 36.5 0.00 0.0345469 87.0
2020-09-16 18:30:00 88.3 14.1 33.3 88.3 88.3 6.9 9.6 5.9 56.6 39.4 0.00 0.0296221 87.0
2020-09-16 18:35:00 88.1 15.2 35.0 88.1 88.1 10.1 10.1 6.9 3.9 20.9 0.00 0.0245240 87.0
2020-09-16 18:40:00 88.1 15.4 35.2 88.1 88.1 4.7 8.3 5.7 39.5 32.1 0.00 0.0206250 87.0
2020-09-16 18:45:00 87.5 14.9 34.0 87.5 87.5 4.0 7.6 5.0 9.4 24.2 0.00 0.0162888 87.0
2020-09-16 18:50:00 87.5 15.4 34.8 87.5 87.5 4.4 6.7 4.9 43.7 27.0 0.00 0.0094744 87.0
2020-09-16 18:55:00 86.9 16.0 35.3 86.9 86.9 3.8 7.8 5.1 32.7 34.1 0.00 0.0070273 87.0
2020-09-16 19:00:00 86.7 16.7 36.2 86.7 86.7 3.0 6.0 3.7 45.3 30.8 0.00 0.0055289 87.0
2020-09-16 19:05:00 86.0 17.0 36.2 86.0 86.0 3.1 5.8 3.6 8.6 11.6 0.00 0.0039039 86.9
2020-09-16 19:10:00 86.0 15.9 34.4 86.0 86.0 3.8 6.3 4.2 37.3 25.8 0.00 0.0022509 86.9
2020-09-16 19:15:00 85.5 15.7 33.8 85.5 85.5 3.7 6.9 3.9 9.5 25.6 0.00 0.0009991 86.9
2020-09-16 19:20:00 85.3 15.8 33.7 85.3 85.3 3.1 5.1 3.5 323.1 15.9 0.00 0.0005356 86.8
2020-09-16 19:25:00 85.1 16.4 34.5 85.1 85.1 2.1 4.7 3.1 29.0 19.9 0.00 0.0002909 86.8
2020-09-16 19:30:00 84.6 16.0 33.5 84.6 84.6 3.7 4.2 2.8 30.0 19.2 0.00 0.0001144 86.8
2020-09-16 19:35:00 84.2 15.6 32.6 84.2 84.2 3.7 3.8 3.0 48.4 31.3 0.00 0.0000020 86.7
2020-09-16 19:40:00 83.9 16.0 33.0 83.9 83.9 1.9 4.2 3.1 48.0 35.4 0.00 0.0000000 86.7
2020-09-16 19:45:00 83.3 16.6 33.4 83.3 83.3 2.8 5.8 3.6 27.8 30.0 0.00 0.0000000 86.6
2020-09-16 19:50:00 83.2 15.8 32.1 83.2 83.2 2.6 4.4 2.8 13.2 25.8 0.00 0.0000000 86.5
2020-09-16 19:55:00 82.8 16.0 32.1 82.8 82.8 3.8 5.5 3.3 55.0 35.1 0.00 0.0000000 86.5
2020-09-16 20:00:00 82.5 15.5 31.1 82.5 82.5 4.0 6.2 4.1 8.3 20.4 0.00 0.0000000 86.4
2020-09-16 20:05:00 82.1 15.7 31.0 82.1 82.1 3.1 5.1 3.3 58.5 29.6 0.00 0.0000000 86.4
2020-09-16 20:10:00 81.8 17.6 33.6 81.8 81.8 3.3 5.5 3.5 32.8 28.0 0.00 0.0000000 86.3
2020-09-16 20:15:00 81.2 16.2 31.0 81.2 81.2 3.0 4.0 3.0 42.2 37.1 0.00 0.0000000 86.2
2020-09-16 20:20:00 81.0 15.8 30.2 81.0 81.0 2.1 5.8 3.1 73.4 55.1 0.00 0.0000000 86.1
2020-09-16 20:25:00 80.5 16.0 30.2 80.5 80.5 3.5 5.3 3.7 69.0 42.5 0.00 0.0000000 86.1
2020-09-16 20:30:00 80.2 15.1 28.5 80.2 80.2 3.1 5.6 4.1 51.8 40.6 0.00 0.0000000 86.0
2020-09-16 20:35:00 80.0 16.0 29.7 80.0 80.0 3.5 5.3 4.0 74.7 34.9 0.00 0.0000000 85.9
2020-09-16 20:40:00 79.7 15.8 29.2 79.7 79.7 2.4 4.9 3.2 21.9 36.9 0.00 0.0000000 85.8
2020-09-16 20:45:00 78.9 16.5 29.6 78.9 78.9 1.9 3.7 2.6 54.7 36.7 0.00 0.0000000 85.7
2020-09-16 20:50:00 78.5 16.8 29.8 78.5 78.5 0.8 1.9 1.2 57.7 71.0 0.00 0.0000000 85.6
2020-09-16 20:55:00 78.5 15.6 27.9 78.5 78.5 2.6 3.0 1.8 30.8 63.4 0.00 0.0000000 85.5
2020-09-16 21:00:00 78.9 15.8 28.5 78.9 78.9 1.9 3.7 2.4 65.0 60.1 0.00 0.0000000 85.5
2020-09-16 21:05:00 78.9 15.8 28.6 78.9 78.9 3.0 3.7 2.2 99.3 91.3 0.00 0.0000000 85.4
2020-09-16 21:10:00 78.1 15.6 27.6 78.1 78.1 2.4 3.7 2.6 120.9 88.2 0.00 0.0000000 85.3
2020-09-16 21:15:00 78.4 15.4 27.6 78.4 78.4 1.5 3.8 2.4 9.4 83.0 0.00 0.0000000 85.2
2020-09-16 21:20:00 78.5 16.2 28.9 78.5 78.5 2.8 4.0 2.3 134.6 86.2 0.00 0.0000000 85.1
2020-09-16 21:25:00 77.8 17.2 29.8 77.8 77.8 0.0 2.4 1.0 52.4 34.1 0.00 0.0000000 85.0
2020-09-16 21:30:00 77.3 19.8 32.8 77.3 77.3 1.9 2.2 1.7 181.6 175.5 0.00 0.0000000 84.9
2020-09-16 21:35:00 76.0 22.7 35.2 76.0 76.0 0.0 1.9 1.2 198.8 190.2 0.00 0.0000000 84.8
2020-09-16 21:40:00 74.5 26.5 37.8 74.5 74.5 1.3 2.1 1.5 242.1 214.5 0.00 0.0000000 84.7
2020-09-16 21:45:00 74.0 28.4 39.2 74.0 74.0 3.3 4.6 2.7 220.5 262.6 0.00 0.0000000 84.7
2020-09-16 21:50:00 73.3 28.8 39.0 73.3 73.3 2.8 3.7 2.6 207.6 215.8 0.00 0.0000000 84.5
2020-09-16 21:55:00 72.7 31.0 40.3 72.7 72.7 0.0 2.8 1.6 116.5 163.8 0.00 0.0000000 84.5
2020-09-16 22:00:00 72.0 30.8 39.5 72.0 72.0 1.3 1.7 0.3 227.4 233.5 0.00 0.0000000 84.3
2020-09-16 22:05:00 71.5 32.2 40.2 71.5 71.5 0.0 2.1 0.9 76.5 223.5 0.00 0.0000000 84.3
2020-09-16 22:10:00 71.2 32.3 40.1 71.2 71.2 0.0 0.0 0.0 4.2 0.0 0.00 0.0000000 84.2
2020-09-16 22:15:00 70.4 34.0 40.7 70.4 70.4 0.0 1.3 0.5 284.3 31.2 0.00 0.0000000 84.1
2020-09-16 22:20:00 70.0 34.5 40.7 70.0 70.0 0.0 1.5 0.5 318.6 41.2 0.00 0.0000000 84.0
2020-09-16 22:25:00 69.8 37.4 42.6 69.8 69.8 0.0 0.0 0.0 242.2 0.0 0.00 0.0000000 83.9
2020-09-16 22:30:00 69.5 41.1 44.8 69.5 69.5 1.0 1.0 0.1 173.3 178.8 0.00 0.0000000 83.8
2020-09-16 22:35:00 68.8 37.8 42.0 68.8 68.8 0.0 2.4 1.2 103.3 187.3 0.00 0.0000000 83.7
2020-09-16 22:40:00 68.8 38.7 42.6 68.8 68.8 1.0 2.6 1.5 145.0 131.6 0.00 0.0000000 83.6
2020-09-16 22:45:00 68.5 37.9 41.7 68.5 68.5 1.9 1.9 0.4 318.2 317.2 0.00 0.0000000 83.5
2020-09-16 22:50:00 68.5 38.0 41.9 68.5 68.5 1.2 1.7 0.3 217.7 279.6 0.00 0.0000000 83.4
2020-09-16 22:55:00 68.5 36.7 41.0 68.5 68.5 0.0 3.8 2.0 37.8 266.7 0.00 0.0000000 83.3
2020-09-16 23:00:00 69.2 34.5 40.0 69.2 69.2 1.2 2.1 1.0 89.5 275.7 0.00 0.0000000 83.2
2020-09-16 23:05:00 69.6 33.3 39.5 69.6 69.6 1.9 2.2 1.1 288.0 202.3 0.00 0.0000000 83.1
2020-09-16 23:10:00 69.4 33.1 39.1 69.4 69.4 0.0 1.9 0.9 254.7 322.7 0.00 0.0000000 83.0
2020-09-16 23:15:00 69.5 33.1 39.3 69.5 69.5 1.2 3.0 1.5 252.3 259.3 0.00 0.0000000 82.9
2020-09-16 23:20:00 69.4 32.4 38.6 69.4 69.4 2.1 2.2 1.0 252.4 318.4 0.00 0.0000000 82.9
2020-09-16 23:25:00 69.0 32.3 38.2 69.0 69.0 0.0 2.1 1.5 197.7 163.8 0.00 0.0000000 82.7
2020-09-16 23:30:00 69.5 30.4 37.1 69.5 69.5 2.1 2.8 1.6 322.5 296.9 0.00 0.0000000 82.7
2020-09-16 23:35:00 69.3 34.9 40.4 69.3 69.3 0.8 1.9 0.9 98.6 48.1 0.00 0.0000000 82.6
2020-09-16 23:40:00 68.8 38.0 42.1 68.8 68.8 3.1 4.4 1.3 119.1 60.1 0.00 0.0000000 82.5
2020-09-16 23:45:00 68.4 32.2 37.5 68.4 68.4 3.0 3.8 2.2 194.6 182.1 0.00 0.0000000 82.4
2020-09-16 23:50:00 68.9 34.7 39.9 68.9 68.9 0.0 5.5 2.1 41.5 238.7 0.00 0.0000000 82.3
2020-09-16 23:55:00 69.2 33.1 39.0 69.2 69.2 0.0 3.1 1.3 221.6 193.1 0.00 0.0000000 82.2
2020-09-17 00:00:00 69.2 34.0 39.6 69.2 69.2 1.9 6.3 3.5 173.7 181.0 0.00 0.0000000 82.1

Data is courtesy of the NM Climate Center. DO NOT USE IN LEGAL PROCEEDINGS.